sensor_id;sensor_type;location;lat;lon;timestamp;P1;durP1;ratioP1;P2;durP2;ratioP2
9324;SDS011;4701;51.566;6.776;2023-09-19T05:14:09;8.23;;;2.50;;
9324;SDS011;4701;51.566;6.776;2023-09-19T05:19:11;6.40;;;1.90;;
9324;SDS011;4701;51.566;6.776;2023-09-19T05:24:13;7.70;;;2.03;;
9324;SDS011;4701;51.566;6.776;2023-09-19T05:29:18;6.53;;;2.30;;
9324;SDS011;4701;51.566;6.776;2023-09-19T05:34:20;8.17;;;2.10;;
9324;SDS011;4701;51.566;6.776;2023-09-19T05:39:21;8.53;;;2.20;;
9324;SDS011;4701;51.566;6.776;2023-09-19T05:44:25;9.83;;;2.40;;
9324;SDS011;4701;51.566;6.776;2023-09-19T05:49:26;7.67;;;2.23;;
9324;SDS011;4701;51.566;6.776;2023-09-19T05:54:28;8.63;;;2.13;;
9324;SDS011;4701;51.566;6.776;2023-09-19T05:59:31;6.33;;;2.23;;
9324;SDS011;4701;51.566;6.776;2023-09-19T06:04:34;5.83;;;2.23;;
9324;SDS011;4701;51.566;6.776;2023-09-19T06:09:36;7.10;;;1.90;;
9324;SDS011;4701;51.566;6.776;2023-09-19T06:14:39;7.20;;;2.20;;
9324;SDS011;4701;51.566;6.776;2023-09-19T06:19:41;13.93;;;2.90;;
9324;SDS011;4701;51.566;6.776;2023-09-19T06:24:46;6.63;;;2.17;;
9324;SDS011;4701;51.566;6.776;2023-09-19T06:29:49;8.40;;;2.77;;
9324;SDS011;4701;51.566;6.776;2023-09-19T06:34:52;8.60;;;2.23;;
9324;SDS011;4701;51.566;6.776;2023-09-19T06:39:54;7.10;;;2.43;;
9324;SDS011;4701;51.566;6.776;2023-09-19T06:44:58;11.17;;;3.40;;
9324;SDS011;4701;51.566;6.776;2023-09-19T06:50:00;6.97;;;2.00;;
9324;SDS011;4701;51.566;6.776;2023-09-19T06:55:05;7.53;;;3.00;;
9324;SDS011;4701;51.566;6.776;2023-09-19T07:00:09;9.37;;;2.27;;
9324;SDS011;4701;51.566;6.776;2023-09-19T07:05:18;10.90;;;2.37;;
9324;SDS011;4701;51.566;6.776;2023-09-19T07:10:22;8.43;;;2.43;;
9324;SDS011;4701;51.566;6.776;2023-09-19T07:15:27;10.07;;;2.27;;
9324;SDS011;4701;51.566;6.776;2023-09-19T07:20:31;9.90;;;3.03;;
9324;SDS011;4701;51.566;6.776;2023-09-19T07:25:35;11.43;;;2.70;;
9324;SDS011;4701;51.566;6.776;2023-09-19T07:30:38;9.43;;;2.93;;
9324;SDS011;4701;51.566;6.776;2023-09-19T07:35:44;8.27;;;2.50;;
9324;SDS011;4701;51.566;6.776;2023-09-19T07:40:46;8.53;;;2.10;;
9324;SDS011;4701;51.566;6.776;2023-09-19T07:45:49;9.67;;;2.30;;
9324;SDS011;4701;51.566;6.776;2023-09-19T07:50:51;9.97;;;2.73;;
9324;SDS011;4701;51.566;6.776;2023-09-19T07:56:01;11.07;;;2.33;;
9324;SDS011;4701;51.566;6.776;2023-09-19T08:01:06;10.90;;;2.70;;
9324;SDS011;4701;51.566;6.776;2023-09-19T08:06:10;6.33;;;2.23;;
9324;SDS011;4701;51.566;6.776;2023-09-19T08:11:14;9.80;;;2.53;;
9324;SDS011;4701;51.566;6.776;2023-09-19T08:16:22;6.27;;;2.13;;
9324;SDS011;4701;51.566;6.776;2023-09-19T08:21:24;12.90;;;2.60;;
9324;SDS011;4701;51.566;6.776;2023-09-19T08:26:29;9.87;;;2.50;;
9324;SDS011;4701;51.566;6.776;2023-09-19T08:31:33;7.87;;;2.50;;
9324;SDS011;4701;51.566;6.776;2023-09-19T08:36:35;7.60;;;2.40;;
9324;SDS011;4701;51.566;6.776;2023-09-19T08:41:37;5.37;;;2.30;;
9324;SDS011;4701;51.566;6.776;2023-09-19T08:46:40;8.33;;;2.40;;
9324;SDS011;4701;51.566;6.776;2023-09-19T08:51:43;7.27;;;2.30;;
9324;SDS011;4701;51.566;6.776;2023-09-19T08:56:47;9.83;;;2.30;;
9324;SDS011;4701;51.566;6.776;2023-09-19T09:01:50;7.37;;;2.03;;
9324;SDS011;4701;51.566;6.776;2023-09-19T09:06:54;7.33;;;1.90;;
9324;SDS011;4701;51.566;6.776;2023-09-19T09:11:57;11.17;;;2.87;;
9324;SDS011;4701;51.566;6.776;2023-09-19T09:17:01;6.30;;;2.30;;
9324;SDS011;4701;51.566;6.776;2023-09-19T09:22:06;8.70;;;3.07;;
9324;SDS011;4701;51.566;6.776;2023-09-19T09:27:09;7.53;;;2.43;;
9324;SDS011;4701;51.566;6.776;2023-09-19T09:32:19;10.00;;;2.40;;
9324;SDS011;4701;51.566;6.776;2023-09-19T09:37:22;10.27;;;2.30;;
9324;SDS011;4701;51.566;6.776;2023-09-19T09:42:30;10.90;;;2.73;;
9324;SDS011;4701;51.566;6.776;2023-09-19T09:47:42;8.97;;;2.77;;
9324;SDS011;4701;51.566;6.776;2023-09-19T09:52:50;8.70;;;2.40;;
9324;SDS011;4701;51.566;6.776;2023-09-19T09:57:55;6.80;;;2.30;;
9324;SDS011;4701;51.566;6.776;2023-09-19T17:03:46;2.07;;;1.00;;
9324;SDS011;4701;51.566;6.776;2023-09-19T17:08:49;2.23;;;1.00;;
9324;SDS011;4701;51.566;6.776;2023-09-19T17:13:51;3.03;;;1.87;;
9324;SDS011;4701;51.566;6.776;2023-09-19T17:18:55;4.47;;;1.50;;
9324;SDS011;4701;51.566;6.776;2023-09-19T17:23:58;2.30;;;1.07;;
9324;SDS011;4701;51.566;6.776;2023-09-19T17:29:00;2.80;;;1.30;;
9324;SDS011;4701;51.566;6.776;2023-09-19T17:34:03;2.80;;;1.13;;
9324;SDS011;4701;51.566;6.776;2023-09-19T17:39:04;1.40;;;0.80;;
9324;SDS011;4701;51.566;6.776;2023-09-19T17:44:08;3.07;;;1.23;;
9324;SDS011;4701;51.566;6.776;2023-09-19T17:49:13;5.07;;;1.27;;
9324;SDS011;4701;51.566;6.776;2023-09-19T17:54:14;7.20;;;1.57;;
9324;SDS011;4701;51.566;6.776;2023-09-19T17:59:16;4.23;;;1.43;;
9324;SDS011;4701;51.566;6.776;2023-09-19T18:04:19;4.13;;;1.30;;
9324;SDS011;4701;51.566;6.776;2023-09-19T18:09:21;2.73;;;1.20;;
9324;SDS011;4701;51.566;6.776;2023-09-19T18:14:22;3.73;;;1.43;;
9324;SDS011;4701;51.566;6.776;2023-09-19T18:19:26;3.27;;;1.30;;
9324;SDS011;4701;51.566;6.776;2023-09-19T18:24:30;3.30;;;1.40;;
9324;SDS011;4701;51.566;6.776;2023-09-19T18:29:32;2.20;;;1.27;;
9324;SDS011;4701;51.566;6.776;2023-09-19T18:34:35;3.30;;;1.50;;
9324;SDS011;4701;51.566;6.776;2023-09-19T18:39:37;5.10;;;1.50;;
9324;SDS011;4701;51.566;6.776;2023-09-19T18:44:40;5.90;;;1.70;;
9324;SDS011;4701;51.566;6.776;2023-09-19T18:49:43;5.10;;;1.23;;
9324;SDS011;4701;51.566;6.776;2023-09-19T18:54:44;4.30;;;1.33;;
